Time;durP1;ratioP1;P1;durP2;ratioP2;P2;SDS_P1;SDS_P2;PMS_P1;PMS_P2;Temp;Humidity;BMP_temperature;BMP_pressure;BME280_temperature;BME280_humidity;BME280_pressure;Samples;Min_cycle;Max_cycle;Signal;HPM_P1;HPM_P2
2023/11/23 00:03:40;;;;;;;14.80;6.47;;;;;;;;;;10240325;28;20479;-63
2023/11/23 00:08:42;;;;;;;16.42;7.60;;;;;;;;;;10247575;28;20470;-63
2023/11/23 00:13:42;;;;;;;11.63;5.97;;;;;;;;;;10266535;28;20035;-64
2023/11/23 00:18:43;;;;;;;10.68;6.20;;;;;;;;;;10250627;28;20035;-62
2023/11/23 00:23:44;;;;;;;11.88;6.25;;;;;;;;;;10258720;28;20031;-64
2023/11/23 00:28:44;;;;;;;12.77;5.50;;;;;;;;;;10255441;28;20057;-64
2023/11/23 00:33:45;;;;;;;15.27;6.30;;;;;;;;;;10248324;28;20035;-61
2023/11/23 00:38:45;;;;;;;10.77;5.65;;;;;;;;;;10264539;28;20026;-63
2023/11/23 00:43:46;;;;;;;11.05;5.72;;;;;;;;;;10244825;28;20027;-63
2023/11/23 00:48:47;;;;;;;11.98;6.07;;;;;;;;;;10244914;29;20139;-62
2023/11/23 00:53:47;;;;;;;9.15;6.10;;;;;;;;;;10236010;28;20067;-61
2023/11/23 00:58:48;;;;;;;10.18;5.55;;;;;;;;;;10246127;28;20031;-62
2023/11/23 01:03:49;;;;;;;12.57;5.50;;;;;;;;;;10238741;29;20031;-66
2023/11/23 01:08:49;;;;;;;10.13;6.28;;;;;;;;;;10245398;28;20027;-63
2023/11/23 01:13:50;;;;;;;21.77;5.85;;;;;;;;;;10245486;28;20031;-63
2023/11/23 01:18:50;;;;;;;10.18;5.50;;;;;;;;;;10244990;28;20035;-62
2023/11/23 01:23:51;;;;;;;10.48;5.43;;;;;;;;;;10233046;28;20476;-62
2023/11/23 01:28:52;;;;;;;12.93;5.70;;;;;;;;;;10245165;28;20114;-62
2023/11/23 01:33:52;;;;;;;11.35;5.88;;;;;;;;;;10244084;28;20050;-62
2023/11/23 01:38:53;;;;;;;12.38;6.07;;;;;;;;;;10245417;28;20411;-68
2023/11/23 01:43:54;;;;;;;10.95;5.65;;;;;;;;;;10244966;28;20199;-69
2023/11/23 01:48:56;;;;;;;12.05;5.22;;;;;;;;;;10244574;28;20148;-68
2023/11/23 01:53:57;;;;;;;9.40;5.28;;;;;;;;;;10243364;28;20047;-70
2023/11/23 01:58:59;;;;;;;6.60;4.70;;;;;;;;;;10244411;28;20064;-70
2023/11/23 02:04:00;;;;;;;7.88;4.97;;;;;;;;;;10236684;28;20063;-69
2023/11/23 02:09:00;;;;;;;7.80;4.50;;;;;;;;;;10244414;28;20031;-67
2023/11/23 02:14:03;;;;;;;8.27;4.70;;;;;;;;;;10236131;28;20113;-66
2023/11/23 02:19:04;;;;;;;11.82;5.40;;;;;;;;;;10244199;28;20134;-67
2023/11/23 02:24:08;;;;;;;6.47;5.10;;;;;;;;;;10246618;28;20035;-70
2023/11/23 02:29:09;;;;;;;8.23;5.10;;;;;;;;;;10242401;28;20031;-69
2023/11/23 02:34:09;;;;;;;9.20;4.80;;;;;;;;;;10248617;28;20035;-63
2023/11/23 02:39:10;;;;;;;7.05;4.50;;;;;;;;;;10252069;28;20426;-63
2023/11/23 02:44:10;;;;;;;6.53;4.63;;;;;;;;;;10246373;28;20039;-62
2023/11/23 02:49:11;;;;;;;7.53;4.95;;;;;;;;;;10243541;28;20023;-65
2023/11/23 02:54:12;;;;;;;8.07;4.70;;;;;;;;;;10250968;29;20067;-67
2023/11/23 02:59:13;;;;;;;8.70;4.60;;;;;;;;;;10250852;28;20038;-62
2023/11/23 03:04:14;;;;;;;7.22;4.22;;;;;;;;;;10242700;29;20042;-68
2023/11/23 03:09:14;;;;;;;7.63;4.70;;;;;;;;;;10250418;28;20100;-67
2023/11/23 03:14:15;;;;;;;7.35;4.47;;;;;;;;;;10246005;29;20035;-63
2023/11/23 03:19:15;;;;;;;6.30;4.03;;;;;;;;;;10249379;29;20039;-63
2023/11/23 03:24:16;;;;;;;6.40;4.35;;;;;;;;;;10248781;28;20056;-63
2023/11/23 03:29:17;;;;;;;7.32;4.10;;;;;;;;;;10247896;28;20090;-61
2023/11/23 03:34:17;;;;;;;5.97;4.00;;;;;;;;;;10247415;28;20043;-61
2023/11/23 03:39:18;;;;;;;8.35;4.10;;;;;;;;;;10237184;28;20031;-62
2023/11/23 03:44:18;;;;;;;8.35;4.75;;;;;;;;;;10249825;28;20039;-61
2023/11/23 03:49:19;;;;;;;6.75;4.25;;;;;;;;;;10235580;28;20031;-63
2023/11/23 03:54:20;;;;;;;6.30;3.55;;;;;;;;;;10244743;29;20426;-68
2023/11/23 03:59:20;;;;;;;5.45;4.38;;;;;;;;;;10241920;28;20035;-62
2023/11/23 04:04:21;;;;;;;7.45;3.80;;;;;;;;;;10247936;28;20030;-62
2023/11/23 04:09:25;;;;;;;5.57;3.67;;;;;;;;;;10247654;28;20023;-62
2023/11/23 04:14:27;;;;;;;5.95;3.97;;;;;;;;;;10247794;28;20168;-62
2023/11/23 04:19:28;;;;;;;6.82;4.03;;;;;;;;;;10237802;28;20030;-66
2023/11/23 04:24:29;;;;;;;7.68;4.00;;;;;;;;;;10247469;28;20042;-62
2023/11/23 04:29:29;;;;;;;7.68;4.20;;;;;;;;;;10239924;28;20046;-63
2023/11/23 04:34:30;;;;;;;6.32;3.70;;;;;;;;;;10247171;28;20271;-69
2023/11/23 04:39:31;;;;;;;5.60;3.88;;;;;;;;;;10238952;29;20056;-68
2023/11/23 04:44:31;;;;;;;5.88;3.63;;;;;;;;;;10246022;28;20039;-69
2023/11/23 04:49:32;;;;;;;4.55;3.60;;;;;;;;;;10241227;28;20028;-67
2023/11/23 04:54:33;;;;;;;5.38;3.10;;;;;;;;;;10232486;28;20403;-67
2023/11/23 04:59:33;;;;;;;7.50;3.60;;;;;;;;;;10245669;28;20032;-68
2023/11/23 05:04:34;;;;;;;4.18;3.08;;;;;;;;;;10241755;28;20035;-68
2023/11/23 05:09:34;;;;;;;5.10;3.50;;;;;;;;;;10245906;28;20662;-69
2023/11/23 05:14:35;;;;;;;4.32;3.20;;;;;;;;;;10240459;28;20031;-68
2023/11/23 05:19:36;;;;;;;4.32;3.20;;;;;;;;;;10246334;28;20498;-65
2023/11/23 05:24:36;;;;;;;6.38;3.35;;;;;;;;;;10242105;29;20375;-66
2023/11/23 05:29:37;;;;;;;4.85;3.20;;;;;;;;;;10242545;28;20640;-62
2023/11/23 05:34:37;;;;;;;4.30;3.33;;;;;;;;;;10235395;28;20062;-60
2023/11/23 05:39:39;;;;;;;4.30;3.17;;;;;;;;;;10245411;29;20027;-65
2023/11/23 05:44:40;;;;;;;4.07;3.42;;;;;;;;;;10237090;28;20054;-66
2023/11/23 05:49:40;;;;;;;4.15;3.42;;;;;;;;;;10244199;28;20034;-68
2023/11/23 05:54:41;;;;;;;5.25;3.30;;;;;;;;;;10244335;28;20047;-66
2023/11/23 05:59:41;;;;;;;3.55;2.90;;;;;;;;;;10244284;28;20027;-65
2023/11/23 06:04:42;;;;;;;5.43;2.88;;;;;;;;;;10241064;28;20070;-62
2023/11/23 06:09:43;;;;;;;4.22;3.05;;;;;;;;;;10248658;28;20376;-66
2023/11/23 06:14:43;;;;;;;4.88;3.47;;;;;;;;;;10245894;28;20039;-75
2023/11/23 06:19:44;;;;;;;5.65;3.05;;;;;;;;;;10236723;28;20407;-72
2023/11/23 06:24:45;;;;;;;22.83;3.40;;;;;;;;;;10242193;28;20479;-66
2023/11/23 06:29:45;;;;;;;7.75;3.05;;;;;;;;;;10243654;28;20039;-68
2023/11/23 06:34:46;;;;;;;8.38;3.20;;;;;;;;;;10246526;28;20089;-61
2023/11/23 06:39:46;;;;;;;5.07;2.88;;;;;;;;;;10240010;28;20094;-61
2023/11/23 06:44:47;;;;;;;4.65;2.90;;;;;;;;;;10232605;28;20031;-63
2023/11/23 06:49:48;;;;;;;4.10;3.28;;;;;;;;;;10245556;28;20035;-60
2023/11/23 06:54:48;;;;;;;25.52;3.28;;;;;;;;;;10235691;28;20294;-61
2023/11/23 06:59:49;;;;;;;34.42;4.35;;;;;;;;;;10236402;28;20416;-60
2023/11/23 07:04:49;;;;;;;13.07;3.67;;;;;;;;;;10240928;28;20484;-60
2023/11/23 07:09:50;;;;;;;21.98;4.47;;;;;;;;;;10245495;28;20447;-61
2023/11/23 07:14:52;;;;;;;17.67;4.53;;;;;;;;;;10248944;29;20404;-61
2023/11/23 07:19:52;;;;;;;25.30;4.32;;;;;;;;;;10250003;28;20061;-60
2023/11/23 07:24:53;;;;;;;16.25;4.13;;;;;;;;;;10241801;29;20066;-61
2023/11/23 07:29:53;;;;;;;14.60;3.88;;;;;;;;;;10244826;28;20031;-62
2023/11/23 07:34:54;;;;;;;10.82;3.95;;;;;;;;;;10249820;28;20487;-60
2023/11/23 07:39:56;;;;;;;8.13;3.72;;;;;;;;;;10245928;28;20471;-61
2023/11/23 07:44:57;;;;;;;9.73;3.63;;;;;;;;;;10248613;28;20479;-61
2023/11/23 07:49:59;;;;;;;14.57;4.25;;;;;;;;;;10247946;28;20028;-60
2023/11/23 07:55:00;;;;;;;10.75;3.38;;;;;;;;;;10236468;29;20035;-62
2023/11/23 08:00:00;;;;;;;5.40;3.30;;;;;;;;;;10242429;28;20035;-60
2023/11/23 08:05:01;;;;;;;8.48;3.60;;;;;;;;;;10248111;28;20364;-61
2023/11/23 08:10:06;;;;;;;8.93;3.35;;;;;;;;;;10239735;28;20039;-62
2023/11/23 08:15:08;;;;;;;13.05;3.80;;;;;;;;;;10248563;29;20035;-61
2023/11/23 08:20:12;;;;;;;7.45;3.63;;;;;;;;;;10246771;28;20179;-60
2023/11/23 08:25:12;;;;;;;14.30;4.00;;;;;;;;;;10248271;28;20038;-60
2023/11/23 08:30:15;;;;;;;6.80;3.25;;;;;;;;;;10246937;28;20035;-60
2023/11/23 08:35:15;;;;;;;8.15;3.55;;;;;;;;;;10260829;28;20039;-60
2023/11/23 08:40:16;;;;;;;5.72;3.50;;;;;;;;;;10246862;28;20031;-62
2023/11/23 08:45:16;;;;;;;8.85;3.47;;;;;;;;;;10239027;28;20041;-61
2023/11/23 08:50:17;;;;;;;5.72;3.58;;;;;;;;;;10246157;28;20050;-61
2023/11/23 08:55:18;;;;;;;6.70;3.53;;;;;;;;;;10243550;28;20034;-61
2023/11/23 09:00:23;;;;;;;5.35;3.53;;;;;;;;;;10245276;29;20031;-62
2023/11/23 09:05:24;;;;;;;10.55;3.63;;;;;;;;;;10243347;28;20036;-60
2023/11/23 09:10:25;;;;;;;4.20;3.13;;;;;;;;;;10246026;28;20039;-60
2023/11/23 09:15:26;;;;;;;5.38;3.28;;;;;;;;;;10245312;28;20027;-60
2023/11/23 09:20:26;;;;;;;7.35;3.53;;;;;;;;;;10238724;28;20483;-60
2023/11/23 09:25:29;;;;;;;10.85;3.80;;;;;;;;;;10243432;29;20030;-60
2023/11/23 09:30:30;;;;;;;5.65;3.40;;;;;;;;;;10242030;28;20114;-60
2023/11/23 09:35:31;;;;;;;9.00;3.10;;;;;;;;;;10241656;28;20031;-61
2023/11/23 09:40:32;;;;;;;5.50;3.30;;;;;;;;;;10241714;29;20023;-64
2023/11/23 09:45:33;;;;;;;6.18;3.55;;;;;;;;;;10242233;29;20116;-60
2023/11/23 09:50:33;;;;;;;4.28;2.83;;;;;;;;;;10243919;28;20076;-62
2023/11/23 09:55:34;;;;;;;3.97;2.97;;;;;;;;;;10248865;28;20086;-61
2023/11/23 10:00:35;;;;;;;7.20;3.30;;;;;;;;;;10245785;28;20035;-62
2023/11/23 10:05:38;;;;;;;3.75;3.13;;;;;;;;;;10243151;28;20031;-60
2023/11/23 10:10:39;;;;;;;4.30;2.75;;;;;;;;;;10241518;28;20035;-61
2023/11/23 10:15:40;;;;;;;5.28;3.17;;;;;;;;;;10236798;28;20456;-60
2023/11/23 10:20:46;;;;;;;6.80;2.95;;;;;;;;;;10243879;28;20070;-60
2023/11/23 10:25:47;;;;;;;5.35;3.25;;;;;;;;;;10243253;28;20031;-61
2023/11/23 10:30:49;;;;;;;8.88;3.10;;;;;;;;;;10243548;28;20023;-60
2023/11/23 10:35:52;;;;;;;4.65;3.20;;;;;;;;;;10243486;29;20028;-61
2023/11/23 10:40:53;;;;;;;7.05;2.92;;;;;;;;;;10243510;28;20039;-60
2023/11/23 10:45:56;;;;;;;4.97;2.72;;;;;;;;;;10249688;28;20383;-60
2023/11/23 10:50:57;;;;;;;6.57;3.08;;;;;;;;;;10247664;29;20039;-60
2023/11/23 10:56:16;;;;;;;6.68;2.88;;;;;;;;;;10249405;28;20391;-60
2023/11/23 11:01:21;;;;;;;3.22;2.92;;;;;;;;;;10245325;29;20507;-61
2023/11/23 11:06:23;;;;;;;4.25;2.80;;;;;;;;;;10248727;28;20047;-60
2023/11/23 11:11:25;;;;;;;3.20;2.75;;;;;;;;;;10240923;28;20476;-61
2023/11/23 11:16:33;;;;;;;3.25;2.50;;;;;;;;;;10248460;28;20031;-61
2023/11/23 11:21:47;;;;;;;3.95;2.95;;;;;;;;;;10251839;28;20447;-61
2023/11/23 11:26:48;;;;;;;4.13;2.80;;;;;;;;;;10251282;28;20039;-61
2023/11/23 11:31:49;;;;;;;4.38;2.75;;;;;;;;;;10246166;29;20042;-63
2023/11/23 11:37:03;;;;;;;4.63;2.60;;;;;;;;;;10246538;29;20058;-62
2023/11/23 11:42:04;;;;;;;6.07;2.70;;;;;;;;;;10246602;29;20463;-61
2023/11/23 11:47:06;;;;;;;5.00;2.80;;;;;;;;;;10245077;29;20074;-60
2023/11/23 11:52:12;;;;;;;3.83;2.80;;;;;;;;;;10244347;29;20051;-61
2023/11/23 11:57:12;;;;;;;7.40;3.03;;;;;;;;;;10259918;28;20039;-60
2023/11/23 12:02:13;;;;;;;3.33;2.60;;;;;;;;;;10245113;28;20031;-60
2023/11/23 12:07:17;;;;;;;3.80;2.92;;;;;;;;;;10243724;29;20403;-60
2023/11/23 12:12:19;;;;;;;3.60;2.58;;;;;;;;;;10244818;29;20054;-62
2023/11/23 12:17:20;;;;;;;4.35;2.50;;;;;;;;;;10247616;28;20045;-60
2023/11/23 12:22:25;;;;;;;6.63;2.33;;;;;;;;;;10245969;28;20029;-60
2023/11/23 12:27:26;;;;;;;5.38;2.53;;;;;;;;;;10249054;28;20031;-66
2023/11/23 12:32:27;;;;;;;3.90;2.40;;;;;;;;;;10246634;28;20019;-63
2023/11/23 12:37:29;;;;;;;5.47;3.00;;;;;;;;;;10252362;28;20394;-60
2023/11/23 12:42:30;;;;;;;4.10;2.53;;;;;;;;;;10267539;28;20094;-62
2023/11/23 12:47:31;;;;;;;5.45;2.30;;;;;;;;;;10244683;28;20078;-61
2023/11/23 12:52:34;;;;;;;3.67;2.55;;;;;;;;;;10244580;28;20058;-61
2023/11/23 12:57:35;;;;;;;6.50;2.58;;;;;;;;;;10249171;28;20023;-61
2023/11/23 13:02:37;;;;;;;2.95;2.30;;;;;;;;;;10247158;28;20031;-60
2023/11/23 13:07:41;;;;;;;2.80;2.53;;;;;;;;;;10243563;28;20460;-61
2023/11/23 13:12:42;;;;;;;3.72;2.63;;;;;;;;;;10238377;29;20356;-61
2023/11/23 13:17:43;;;;;;;3.65;2.20;;;;;;;;;;10245114;28;20062;-60
2023/11/23 13:22:45;;;;;;;3.70;2.80;;;;;;;;;;10243596;28;20115;-60
2023/11/23 13:27:46;;;;;;;2.97;2.30;;;;;;;;;;10250477;28;20038;-62
2023/11/23 13:32:47;;;;;;;2.40;2.20;;;;;;;;;;10239452;28;20046;-61
2023/11/23 13:37:48;;;;;;;4.35;2.33;;;;;;;;;;10251607;28;20211;-60
2023/11/23 13:42:48;;;;;;;3.50;2.15;;;;;;;;;;10243585;28;20039;-60
2023/11/23 13:47:50;;;;;;;2.97;2.13;;;;;;;;;;10240315;28;20093;-61
2023/11/23 13:52:50;;;;;;;2.63;2.20;;;;;;;;;;10236999;28;20055;-60
2023/11/23 13:57:51;;;;;;;2.15;1.92;;;;;;;;;;10245260;28;20027;-61
2023/11/23 14:02:54;;;;;;;4.70;2.45;;;;;;;;;;10246530;28;20031;-61
2023/11/23 14:07:55;;;;;;;35.75;4.10;;;;;;;;;;10232096;28;20035;-63
2023/11/23 14:12:57;;;;;;;7.43;2.90;;;;;;;;;;10248068;28;20085;-61
2023/11/23 14:17:59;;;;;;;11.02;2.95;;;;;;;;;;10248564;28;20066;-64
2023/11/23 14:23:00;;;;;;;23.77;3.40;;;;;;;;;;10255748;28;20428;-63
2023/11/23 14:28:00;;;;;;;23.17;3.55;;;;;;;;;;10256258;28;20031;-64
2023/11/23 14:33:01;;;;;;;15.68;2.30;;;;;;;;;;10253936;28;20423;-63
2023/11/23 14:38:02;;;;;;;17.13;3.22;;;;;;;;;;10255629;28;20031;-63
2023/11/23 14:43:03;;;;;;;23.15;3.35;;;;;;;;;;10255638;28;20043;-63
2023/11/23 14:48:04;;;;;;;13.43;3.00;;;;;;;;;;10256970;28;20612;-63
2023/11/23 14:53:05;;;;;;;13.75;2.70;;;;;;;;;;10256002;28;20047;-63
2023/11/23 14:58:06;;;;;;;4.53;2.15;;;;;;;;;;10246473;29;20031;-63
2023/11/23 15:03:07;;;;;;;21.10;3.05;;;;;;;;;;10249486;29;20035;-63
2023/11/23 15:08:08;;;;;;;4.53;2.70;;;;;;;;;;10256737;28;20094;-63
2023/11/23 15:13:08;;;;;;;13.30;2.38;;;;;;;;;;10255717;28;20039;-63
2023/11/23 15:18:09;;;;;;;3.42;2.42;;;;;;;;;;10256516;29;20086;-63
2023/11/23 15:23:10;;;;;;;8.85;2.70;;;;;;;;;;10255103;28;20037;-63
2023/11/23 15:28:10;;;;;;;6.88;2.40;;;;;;;;;;10254616;28;20027;-63
2023/11/23 15:33:11;;;;;;;9.57;2.60;;;;;;;;;;10253906;28;20023;-63
2023/11/23 15:38:12;;;;;;;10.18;3.10;;;;;;;;;;10248305;28;20038;-65
2023/11/23 15:43:12;;;;;;;11.68;2.45;;;;;;;;;;10243484;28;20033;-66
2023/11/23 15:48:13;;;;;;;3.67;2.20;;;;;;;;;;10249151;28;20031;-62
2023/11/23 15:53:14;;;;;;;5.07;2.45;;;;;;;;;;10251063;28;20119;-65
2023/11/23 15:58:15;;;;;;;6.65;2.35;;;;;;;;;;10248617;28;20042;-63
2023/11/23 16:03:15;;;;;;;5.38;2.05;;;;;;;;;;10248435;28;20064;-65
2023/11/23 16:08:16;;;;;;;5.80;2.67;;;;;;;;;;10247627;28;20028;-66
2023/11/23 16:13:20;;;;;;;3.35;1.98;;;;;;;;;;10245606;28;20042;-66
2023/11/23 16:18:21;;;;;;;7.28;2.45;;;;;;;;;;10245029;28;20118;-65
2023/11/23 16:23:22;;;;;;;2.88;1.98;;;;;;;;;;10244828;28;20494;-64
2023/11/23 16:28:24;;;;;;;4.50;1.98;;;;;;;;;;10244979;28;20110;-64
2023/11/23 16:33:25;;;;;;;5.15;2.03;;;;;;;;;;10240211;28;20036;-66
2023/11/23 16:38:26;;;;;;;3.80;2.30;;;;;;;;;;10242382;29;20035;-66
2023/11/23 16:43:26;;;;;;;6.40;2.20;;;;;;;;;;10240624;28;20483;-62
2023/11/23 16:48:27;;;;;;;4.82;2.03;;;;;;;;;;10246564;28;20039;-64
2023/11/23 16:53:28;;;;;;;4.25;2.22;;;;;;;;;;10239998;28;20172;-63
2023/11/23 16:58:31;;;;;;;2.67;2.00;;;;;;;;;;10254515;28;20522;-63
2023/11/23 17:03:31;;;;;;;4.68;2.20;;;;;;;;;;10242546;28;20779;-63
2023/11/23 17:08:32;;;;;;;4.35;2.33;;;;;;;;;;10244081;28;20043;-63
2023/11/23 17:13:32;;;;;;;3.30;2.10;;;;;;;;;;10244893;28;20175;-63
2023/11/23 17:18:33;;;;;;;5.80;2.05;;;;;;;;;;10243433;28;20031;-64
2023/11/23 17:23:34;;;;;;;4.43;2.58;;;;;;;;;;10243572;28;20388;-63
2023/11/23 17:28:35;;;;;;;4.25;2.30;;;;;;;;;;10249356;28;20391;-63
2023/11/23 17:33:36;;;;;;;6.00;2.47;;;;;;;;;;10248538;28;20490;-63
2023/11/23 17:38:38;;;;;;;5.25;2.55;;;;;;;;;;10239834;28;20129;-63
2023/11/23 17:43:38;;;;;;;6.60;2.45;;;;;;;;;;10250309;28;20027;-63
2023/11/23 17:48:47;;;;;;;6.53;3.05;;;;;;;;;;10241007;28;20034;-62
2023/11/23 17:53:48;;;;;;;5.88;3.45;;;;;;;;;;10244138;28;20039;-63
2023/11/23 17:58:48;;;;;;;5.45;3.83;;;;;;;;;;10242111;28;20031;-63
2023/11/23 18:03:49;;;;;;;8.07;4.30;;;;;;;;;;10242975;28;20070;-63
2023/11/23 18:08:54;;;;;;;5.57;3.97;;;;;;;;;;10243536;28;20031;-62
2023/11/23 18:13:55;;;;;;;8.48;4.20;;;;;;;;;;10238666;29;20562;-62
2023/11/23 18:18:55;;;;;;;8.50;4.43;;;;;;;;;;10242763;29;20031;-63
2023/11/23 18:23:56;;;;;;;11.43;4.45;;;;;;;;;;10241387;28;20039;-65
2023/11/23 18:28:57;;;;;;;8.63;4.35;;;;;;;;;;10244328;28;20038;-65
2023/11/23 18:33:59;;;;;;;12.20;4.63;;;;;;;;;;10244151;28;20028;-66
2023/11/23 18:39:00;;;;;;;8.02;4.47;;;;;;;;;;10243899;28;20033;-65
2023/11/23 18:44:01;;;;;;;8.32;4.47;;;;;;;;;;10242004;28;20039;-65
2023/11/23 18:49:02;;;;;;;9.20;4.57;;;;;;;;;;10242999;28;20026;-64
2023/11/23 18:54:03;;;;;;;10.95;4.68;;;;;;;;;;10241443;28;20586;-65
2023/11/23 18:59:04;;;;;;;5.72;3.95;;;;;;;;;;10238513;28;20497;-65
2023/11/23 19:04:05;;;;;;;9.07;3.60;;;;;;;;;;10238331;28;20031;-65
2023/11/23 19:09:10;;;;;;;7.05;4.32;;;;;;;;;;10254351;28;20027;-66
2023/11/23 19:14:11;;;;;;;6.95;4.30;;;;;;;;;;10246311;28;20046;-66
2023/11/23 19:19:23;;;;;;;11.23;4.35;;;;;;;;;;10242711;28;20074;-66
2023/11/23 19:24:24;;;;;;;34.08;6.93;;;;;;;;;;10248400;28;20043;-66
2023/11/23 19:29:25;;;;;;;21.02;5.93;;;;;;;;;;10244919;28;20075;-66
2023/11/23 19:34:26;;;;;;;10.10;4.55;;;;;;;;;;10248090;29;20533;-65
2023/11/23 19:39:35;;;;;;;14.63;5.70;;;;;;;;;;10247610;29;20387;-66
2023/11/23 19:44:36;;;;;;;11.43;5.13;;;;;;;;;;10237976;28;20062;-66
2023/11/23 19:49:42;;;;;;;12.98;5.32;;;;;;;;;;10249501;28;20039;-66
2023/11/23 19:54:45;;;;;;;13.82;5.43;;;;;;;;;;10248233;28;20078;-66
2023/11/23 19:59:49;;;;;;;14.93;4.85;;;;;;;;;;10243932;28;20039;-65
2023/11/23 20:04:49;;;;;;;11.32;5.05;;;;;;;;;;10244673;28;20031;-66
2023/11/23 20:09:50;;;;;;;13.93;5.35;;;;;;;;;;10243890;28;20039;-66
2023/11/23 20:14:51;;;;;;;8.25;4.78;;;;;;;;;;10239668;28;20491;-65
2023/11/23 20:19:53;;;;;;;11.90;4.82;;;;;;;;;;10241671;28;20023;-65
2023/11/23 20:24:54;;;;;;;12.20;5.57;;;;;;;;;;10242513;29;20402;-65
2023/11/23 20:29:55;;;;;;;9.40;5.15;;;;;;;;;;10244128;28;20028;-65
2023/11/23 20:34:55;;;;;;;14.07;5.78;;;;;;;;;;10242909;28;20050;-65
2023/11/23 20:39:56;;;;;;;12.40;5.53;;;;;;;;;;10242548;28;20475;-65
2023/11/23 20:44:57;;;;;;;11.18;5.22;;;;;;;;;;10243345;29;20042;-65
2023/11/23 20:49:58;;;;;;;11.68;5.15;;;;;;;;;;10242090;28;20031;-65
2023/11/23 20:54:59;;;;;;;10.07;5.22;;;;;;;;;;10246971;28;20102;-65
2023/11/23 21:00:01;;;;;;;8.13;4.82;;;;;;;;;;10245979;28;20087;-65
2023/11/23 21:05:02;;;;;;;12.18;5.63;;;;;;;;;;10248046;28;20487;-65
2023/11/23 21:10:04;;;;;;;9.07;4.97;;;;;;;;;;10255115;28;20034;-65
2023/11/23 21:15:06;;;;;;;7.32;5.28;;;;;;;;;;10241665;28;20117;-66
2023/11/23 21:20:09;;;;;;;11.20;5.03;;;;;;;;;;10258521;28;20058;-66
2023/11/23 21:25:09;;;;;;;13.18;5.63;;;;;;;;;;10244594;28;20031;-66
2023/11/23 21:30:11;;;;;;;10.43;6.32;;;;;;;;;;10244703;28;20035;-65
2023/11/23 21:35:12;;;;;;;15.20;6.40;;;;;;;;;;10243231;28;20031;-65
2023/11/23 21:40:12;;;;;;;16.65;7.30;;;;;;;;;;10240834;28;20483;-66
2023/11/23 21:45:13;;;;;;;14.88;6.55;;;;;;;;;;10237748;28;20039;-66
2023/11/23 21:50:14;;;;;;;23.27;5.97;;;;;;;;;;10234536;29;20035;-65
2023/11/23 21:55:16;;;;;;;11.10;5.78;;;;;;;;;;10243303;29;20041;-66
2023/11/23 22:00:16;;;;;;;17.00;6.20;;;;;;;;;;10235820;29;20447;-66
2023/11/23 22:05:17;;;;;;;15.00;6.07;;;;;;;;;;10245772;28;20031;-66
2023/11/23 22:10:18;;;;;;;9.45;5.47;;;;;;;;;;10243147;28;20034;-65
2023/11/23 22:15:18;;;;;;;15.05;5.60;;;;;;;;;;10241506;28;20035;-66
2023/11/23 22:20:20;;;;;;;9.10;5.57;;;;;;;;;;10241318;28;20026;-66
2023/11/23 22:25:21;;;;;;;17.35;6.20;;;;;;;;;;10239953;29;20082;-66
2023/11/23 22:30:22;;;;;;;13.07;5.30;;;;;;;;;;10239334;28;20035;-64
2023/11/23 22:35:24;;;;;;;9.00;5.47;;;;;;;;;;10240023;28;20038;-64
2023/11/23 22:40:26;;;;;;;12.80;6.30;;;;;;;;;;10256734;28;20475;-65
2023/11/23 22:45:27;;;;;;;9.15;5.25;;;;;;;;;;10250795;28;20058;-64
2023/11/23 22:50:27;;;;;;;12.18;5.75;;;;;;;;;;10246125;28;20479;-70
2023/11/23 22:55:28;;;;;;;9.95;4.68;;;;;;;;;;10249713;28;20034;-68
2023/11/23 23:00:35;;;;;;;15.43;5.35;;;;;;;;;;10248638;28;20027;-69
2023/11/23 23:05:37;;;;;;;11.77;5.32;;;;;;;;;;10242629;29;20524;-67
2023/11/23 23:10:38;;;;;;;9.30;5.43;;;;;;;;;;10249775;28;20039;-71
2023/11/23 23:15:39;;;;;;;9.05;5.50;;;;;;;;;;10248511;29;20231;-69
2023/11/23 23:20:40;;;;;;;10.27;5.55;;;;;;;;;;10265052;28;20079;-71
2023/11/23 23:25:42;;;;;;;13.07;5.97;;;;;;;;;;10250012;28;20117;-70
2023/11/23 23:30:43;;;;;;;8.07;5.25;;;;;;;;;;10250717;28;20035;-70
2023/11/23 23:35:44;;;;;;;7.35;5.22;;;;;;;;;;10250586;29;20046;-65
2023/11/23 23:40:49;;;;;;;8.25;4.85;;;;;;;;;;10249363;28;20038;-70
2023/11/23 23:45:49;;;;;;;12.40;5.18;;;;;;;;;;10248724;28;20097;-69
2023/11/23 23:50:50;;;;;;;8.82;4.97;;;;;;;;;;10247601;28;20094;-69
2023/11/23 23:55:51;;;;;;;8.05;4.95;;;;;;;;;;10248207;28;20046;-70
